sensor_id;sensor_type;location;lat;lon;timestamp;temperature;humidity
33067;DHT22;19428;49.024;8.366;2023-04-01T00:00:28;10.50;99.90
33067;DHT22;19428;49.024;8.366;2023-04-01T00:02:53;10.50;99.90
33067;DHT22;19428;49.024;8.366;2023-04-01T00:05:20;10.50;99.90
33067;DHT22;19428;49.024;8.366;2023-04-01T00:07:46;10.50;99.90
33067;DHT22;19428;49.024;8.366;2023-04-01T00:10:12;10.40;99.90
33067;DHT22;19428;49.024;8.366;2023-04-01T00:12:39;10.40;99.90
33067;DHT22;19428;49.024;8.366;2023-04-01T00:15:07;10.40;99.90
33067;DHT22;19428;49.024;8.366;2023-04-01T00:17:34;10.40;99.90
33067;DHT22;19428;49.024;8.366;2023-04-01T00:20:00;10.40;99.90
33067;DHT22;19428;49.024;8.366;2023-04-01T00:22:26;10.40;99.90
33067;DHT22;19428;49.024;8.366;2023-04-01T00:24:53;10.40;99.90
33067;DHT22;19428;49.024;8.366;2023-04-01T00:27:19;10.40;99.90
33067;DHT22;19428;49.024;8.366;2023-04-01T00:29:46;10.40;99.90
33067;DHT22;19428;49.024;8.366;2023-04-01T00:32:13;10.40;99.90
33067;DHT22;19428;49.024;8.366;2023-04-01T00:34:39;10.50;99.90
33067;DHT22;19428;49.024;8.366;2023-04-01T00:37:05;10.50;99.90
33067;DHT22;19428;49.024;8.366;2023-04-01T00:39:32;10.40;99.90
33067;DHT22;19428;49.024;8.366;2023-04-01T00:41:59;10.40;99.90
33067;DHT22;19428;49.024;8.366;2023-04-01T00:44:28;10.50;99.90
33067;DHT22;19428;49.024;8.366;2023-04-01T00:46:55;10.50;99.90
33067;DHT22;19428;49.024;8.366;2023-04-01T00:49:25;10.40;99.90
33067;DHT22;19428;49.024;8.366;2023-04-01T00:51:54;10.40;99.90
33067;DHT22;19428;49.024;8.366;2023-04-01T00:54:21;10.40;99.90
33067;DHT22;19428;49.024;8.366;2023-04-01T00:56:54;10.40;99.90
33067;DHT22;19428;49.024;8.366;2023-04-01T00:59:30;10.40;99.90
33067;DHT22;19428;49.024;8.366;2023-04-01T01:18:27;10.50;99.90
33067;DHT22;19428;49.024;8.366;2023-04-01T01:24:22;10.50;99.90
33067;DHT22;19428;49.024;8.366;2023-04-01T01:27:06;10.50;99.90
33067;DHT22;19428;49.024;8.366;2023-04-01T01:32:16;10.50;99.90
33067;DHT22;19428;49.024;8.366;2023-04-01T01:37:22;10.30;99.90
33067;DHT22;19428;49.024;8.366;2023-04-01T01:39:56;10.30;99.90
33067;DHT22;19428;49.024;8.366;2023-04-01T01:42:24;10.40;99.90
33067;DHT22;19428;49.024;8.366;2023-04-01T01:44:52;10.30;99.90
33067;DHT22;19428;49.024;8.366;2023-04-01T01:47:19;10.10;99.90
33067;DHT22;19428;49.024;8.366;2023-04-01T01:49:46;10.10;99.90
33067;DHT22;19428;49.024;8.366;2023-04-01T01:52:13;10.00;99.90
33067;DHT22;19428;49.024;8.366;2023-04-01T01:54:53;10.00;99.90
33067;DHT22;19428;49.024;8.366;2023-04-01T01:57:23;10.20;99.90
33067;DHT22;19428;49.024;8.366;2023-04-01T01:59:49;10.20;99.90
33067;DHT22;19428;49.024;8.366;2023-04-01T02:02:17;10.30;99.90
33067;DHT22;19428;49.024;8.366;2023-04-01T02:04:45;10.20;99.90
33067;DHT22;19428;49.024;8.366;2023-04-01T02:07:16;10.20;99.90
33067;DHT22;19428;49.024;8.366;2023-04-01T02:09:43;10.20;99.90
33067;DHT22;19428;49.024;8.366;2023-04-01T02:12:11;10.20;99.90
33067;DHT22;19428;49.024;8.366;2023-04-01T02:15:05;10.10;99.90
33067;DHT22;19428;49.024;8.366;2023-04-01T02:17:33;10.00;99.90
33067;DHT22;19428;49.024;8.366;2023-04-01T02:20:08;10.00;99.90
33067;DHT22;19428;49.024;8.366;2023-04-01T02:22:38;10.00;99.90
33067;DHT22;19428;49.024;8.366;2023-04-01T02:25:12;10.00;99.90
33067;DHT22;19428;49.024;8.366;2023-04-01T02:27:40;10.00;99.90
33067;DHT22;19428;49.024;8.366;2023-04-01T02:30:14;10.00;99.90
33067;DHT22;19428;49.024;8.366;2023-04-01T02:32:48;10.00;99.90
33067;DHT22;19428;49.024;8.366;2023-04-01T02:35:16;9.90;99.90
33067;DHT22;19428;49.024;8.366;2023-04-01T02:37:43;9.90;99.90
33067;DHT22;19428;49.024;8.366;2023-04-01T02:40:12;9.90;99.90
33067;DHT22;19428;49.024;8.366;2023-04-01T02:42:38;9.90;99.90
33067;DHT22;19428;49.024;8.366;2023-04-01T02:45:04;9.90;99.90
33067;DHT22;19428;49.024;8.366;2023-04-01T02:47:30;9.80;99.90
33067;DHT22;19428;49.024;8.366;2023-04-01T02:49:56;9.90;99.90
33067;DHT22;19428;49.024;8.366;2023-04-01T02:52:32;9.80;99.90
33067;DHT22;19428;49.024;8.366;2023-04-01T02:54:58;9.80;99.90
33067;DHT22;19428;49.024;8.366;2023-04-01T02:57:25;9.80;99.90
33067;DHT22;19428;49.024;8.366;2023-04-01T02:59:50;9.80;99.90
33067;DHT22;19428;49.024;8.366;2023-04-01T03:02:16;9.90;99.90
33067;DHT22;19428;49.024;8.366;2023-04-01T03:04:42;10.00;99.90
33067;DHT22;19428;49.024;8.366;2023-04-01T03:07:08;10.00;99.90
33067;DHT22;19428;49.024;8.366;2023-04-01T03:09:36;10.00;99.90
33067;DHT22;19428;49.024;8.366;2023-04-01T03:12:01;10.00;99.90
33067;DHT22;19428;49.024;8.366;2023-04-01T03:14:27;9.90;99.90
33067;DHT22;19428;49.024;8.366;2023-04-01T03:16:53;9.90;99.90
33067;DHT22;19428;49.024;8.366;2023-04-01T03:19:18;9.90;99.90
33067;DHT22;19428;49.024;8.366;2023-04-01T03:21:44;9.90;99.90
33067;DHT22;19428;49.024;8.366;2023-04-01T03:24:10;10.00;99.90
33067;DHT22;19428;49.024;8.366;2023-04-01T03:26:35;9.90;99.90
33067;DHT22;19428;49.024;8.366;2023-04-01T03:29:01;9.90;99.90
33067;DHT22;19428;49.024;8.366;2023-04-01T03:31:27;9.90;99.90
33067;DHT22;19428;49.024;8.366;2023-04-01T03:33:52;10.10;99.90
33067;DHT22;19428;49.024;8.366;2023-04-01T03:36:18;10.00;99.90
33067;DHT22;19428;49.024;8.366;2023-04-01T03:38:44;10.00;99.90
33067;DHT22;19428;49.024;8.366;2023-04-01T03:41:14;10.00;99.90
33067;DHT22;19428;49.024;8.366;2023-04-01T03:43:41;10.10;99.90
33067;DHT22;19428;49.024;8.366;2023-04-01T03:46:06;10.00;99.90
33067;DHT22;19428;49.024;8.366;2023-04-01T03:48:32;10.00;99.90
33067;DHT22;19428;49.024;8.366;2023-04-01T03:50:58;10.10;99.90
33067;DHT22;19428;49.024;8.366;2023-04-01T03:53:23;10.10;99.90
33067;DHT22;19428;49.024;8.366;2023-04-01T03:55:49;10.10;99.90
33067;DHT22;19428;49.024;8.366;2023-04-01T03:58:16;10.10;99.90
33067;DHT22;19428;49.024;8.366;2023-04-01T04:00:42;10.10;99.90
33067;DHT22;19428;49.024;8.366;2023-04-01T04:03:07;10.10;99.90
33067;DHT22;19428;49.024;8.366;2023-04-01T04:05:33;10.10;99.90
33067;DHT22;19428;49.024;8.366;2023-04-01T04:07:59;10.10;99.90
33067;DHT22;19428;49.024;8.366;2023-04-01T04:10:24;10.20;99.90
33067;DHT22;19428;49.024;8.366;2023-04-01T04:12:51;10.10;99.90
33067;DHT22;19428;49.024;8.366;2023-04-01T04:15:17;10.20;99.90
33067;DHT22;19428;49.024;8.366;2023-04-01T04:17:44;10.10;99.90
33067;DHT22;19428;49.024;8.366;2023-04-01T04:20:10;10.10;99.90
33067;DHT22;19428;49.024;8.366;2023-04-01T04:22:35;10.20;99.90
33067;DHT22;19428;49.024;8.366;2023-04-01T04:25:01;10.10;99.90
33067;DHT22;19428;49.024;8.366;2023-04-01T04:27:26;10.20;99.90
33067;DHT22;19428;49.024;8.366;2023-04-01T04:29:52;10.20;99.90
33067;DHT22;19428;49.024;8.366;2023-04-01T04:32:18;10.20;99.90
33067;DHT22;19428;49.024;8.366;2023-04-01T04:34:43;10.30;99.90
33067;DHT22;19428;49.024;8.366;2023-04-01T04:37:09;10.20;99.90
33067;DHT22;19428;49.024;8.366;2023-04-01T04:39:34;10.20;99.90
33067;DHT22;19428;49.024;8.366;2023-04-01T04:42:00;10.20;99.90
33067;DHT22;19428;49.024;8.366;2023-04-01T04:44:25;10.20;99.90
33067;DHT22;19428;49.024;8.366;2023-04-01T04:46:51;10.30;99.90
33067;DHT22;19428;49.024;8.366;2023-04-01T04:49:17;10.30;99.90
33067;DHT22;19428;49.024;8.366;2023-04-01T04:51:42;10.30;99.90
33067;DHT22;19428;49.024;8.366;2023-04-01T04:54:08;10.30;99.90
33067;DHT22;19428;49.024;8.366;2023-04-01T04:56:34;10.30;99.90
33067;DHT22;19428;49.024;8.366;2023-04-01T04:59:01;10.30;99.90
33067;DHT22;19428;49.024;8.366;2023-04-01T05:01:27;10.30;99.90
33067;DHT22;19428;49.024;8.366;2023-04-01T05:03:53;10.20;99.90
33067;DHT22;19428;49.024;8.366;2023-04-01T05:06:19;10.30;99.90
33067;DHT22;19428;49.024;8.366;2023-04-01T05:08:45;10.40;99.90
33067;DHT22;19428;49.024;8.366;2023-04-01T05:11:16;10.40;99.90
33067;DHT22;19428;49.024;8.366;2023-04-01T05:13:43;10.40;99.90
33067;DHT22;19428;49.024;8.366;2023-04-01T05:16:18;10.30;99.90
33067;DHT22;19428;49.024;8.366;2023-04-01T05:18:43;10.30;99.90
33067;DHT22;19428;49.024;8.366;2023-04-01T05:21:10;10.20;99.90
33067;DHT22;19428;49.024;8.366;2023-04-01T05:23:37;10.20;99.90
33067;DHT22;19428;49.024;8.366;2023-04-01T05:26:06;10.20;99.90
33067;DHT22;19428;49.024;8.366;2023-04-01T05:28:32;10.10;99.90
33067;DHT22;19428;49.024;8.366;2023-04-01T05:30:59;10.10;99.90
33067;DHT22;19428;49.024;8.366;2023-04-01T05:33:26;10.10;99.90
33067;DHT22;19428;49.024;8.366;2023-04-01T05:35:53;10.00;99.90
33067;DHT22;19428;49.024;8.366;2023-04-01T05:38:19;9.90;99.90
33067;DHT22;19428;49.024;8.366;2023-04-01T05:40:44;9.90;99.90
33067;DHT22;19428;49.024;8.366;2023-04-01T05:43:10;9.90;99.90
33067;DHT22;19428;49.024;8.366;2023-04-01T05:45:36;9.80;99.90
33067;DHT22;19428;49.024;8.366;2023-04-01T05:48:02;9.80;99.90
33067;DHT22;19428;49.024;8.366;2023-04-01T05:50:28;9.80;99.90
33067;DHT22;19428;49.024;8.366;2023-04-01T05:52:53;9.70;99.90
33067;DHT22;19428;49.024;8.366;2023-04-01T05:55:19;9.60;99.90
33067;DHT22;19428;49.024;8.366;2023-04-01T05:57:46;9.60;99.90
33067;DHT22;19428;49.024;8.366;2023-04-01T06:00:12;9.50;99.90
33067;DHT22;19428;49.024;8.366;2023-04-01T06:02:38;9.50;99.90
33067;DHT22;19428;49.024;8.366;2023-04-01T06:05:19;9.50;99.90
33067;DHT22;19428;49.024;8.366;2023-04-01T06:07:45;9.50;99.90
33067;DHT22;19428;49.024;8.366;2023-04-01T06:10:16;9.40;99.90
33067;DHT22;19428;49.024;8.366;2023-04-01T06:12:56;9.40;99.90
33067;DHT22;19428;49.024;8.366;2023-04-01T06:15:48;9.40;99.90
33067;DHT22;19428;49.024;8.366;2023-04-01T06:21:20;9.40;99.90
33067;DHT22;19428;49.024;8.366;2023-04-01T06:29:06;9.40;99.90
33067;DHT22;19428;49.024;8.366;2023-04-01T06:31:46;9.50;99.90
33067;DHT22;19428;49.024;8.366;2023-04-01T06:34:39;9.40;99.90
33067;DHT22;19428;49.024;8.366;2023-04-01T06:37:34;9.50;99.90
33067;DHT22;19428;49.024;8.366;2023-04-01T06:43:08;9.40;99.90
33067;DHT22;19428;49.024;8.366;2023-04-01T06:51:28;9.40;99.90
33067;DHT22;19428;49.024;8.366;2023-04-01T06:54:16;9.40;99.90
33067;DHT22;19428;49.024;8.366;2023-04-01T06:56:45;9.40;99.90
33067;DHT22;19428;49.024;8.366;2023-04-01T06:59:20;9.40;99.90
33067;DHT22;19428;49.024;8.366;2023-04-01T07:02:01;9.40;99.90
33067;DHT22;19428;49.024;8.366;2023-04-01T07:04:34;9.40;99.90
33067;DHT22;19428;49.024;8.366;2023-04-01T07:07:03;9.40;99.90
33067;DHT22;19428;49.024;8.366;2023-04-01T07:09:37;9.40;99.90
33067;DHT22;19428;49.024;8.366;2023-04-01T07:12:19;9.40;99.90
33067;DHT22;19428;49.024;8.366;2023-04-01T07:14:47;9.40;99.90
33067;DHT22;19428;49.024;8.366;2023-04-01T07:17:23;9.40;99.90
33067;DHT22;19428;49.024;8.366;2023-04-01T07:20:12;9.40;99.90
33067;DHT22;19428;49.024;8.366;2023-04-01T07:22:45;9.40;99.90
33067;DHT22;19428;49.024;8.366;2023-04-01T07:25:14;9.40;99.90
33067;DHT22;19428;49.024;8.366;2023-04-01T07:27:42;9.40;99.90
33067;DHT22;19428;49.024;8.366;2023-04-01T07:30:18;9.30;99.90
33067;DHT22;19428;49.024;8.366;2023-04-01T07:35:26;9.30;99.90
33067;DHT22;19428;49.024;8.366;2023-04-01T07:43:53;9.20;99.90
33067;DHT22;19428;49.024;8.366;2023-04-01T07:46:49;9.10;99.90
33067;DHT22;19428;49.024;8.366;2023-04-01T07:52:29;9.10;99.90
33067;DHT22;19428;49.024;8.366;2023-04-01T07:54:59;9.20;99.90
33067;DHT22;19428;49.024;8.366;2023-04-01T07:58:07;9.20;99.90
33067;DHT22;19428;49.024;8.366;2023-04-01T08:03:23;9.30;99.90
33067;DHT22;19428;49.024;8.366;2023-04-01T08:08:41;9.30;99.90
33067;DHT22;19428;49.024;8.366;2023-04-01T08:11:27;9.40;99.90
33067;DHT22;19428;49.024;8.366;2023-04-01T08:22:57;9.50;99.90
33067;DHT22;19428;49.024;8.366;2023-04-01T08:25:20;9.60;99.90
33067;DHT22;19428;49.024;8.366;2023-04-01T08:28:00;9.60;99.90
33067;DHT22;19428;49.024;8.366;2023-04-01T08:30:53;9.70;99.90
33067;DHT22;19428;49.024;8.366;2023-04-01T08:33:26;9.60;99.90
33067;DHT22;19428;49.024;8.366;2023-04-01T08:35:59;9.70;99.90
33067;DHT22;19428;49.024;8.366;2023-04-01T08:38:36;9.70;99.90
33067;DHT22;19428;49.024;8.366;2023-04-01T08:41:37;9.70;99.90
33067;DHT22;19428;49.024;8.366;2023-04-01T08:48:04;9.80;99.90
33067;DHT22;19428;49.024;8.366;2023-04-01T08:56:20;10.00;99.90
33067;DHT22;19428;49.024;8.366;2023-04-01T09:04:19;9.90;99.90
33067;DHT22;19428;49.024;8.366;2023-04-01T09:12:38;9.80;99.90
33067;DHT22;19428;49.024;8.366;2023-04-01T09:15:53;9.80;99.90
33067;DHT22;19428;49.024;8.366;2023-04-01T09:18:40;9.80;99.90
33067;DHT22;19428;49.024;8.366;2023-04-01T09:26:43;9.80;99.90
33067;DHT22;19428;49.024;8.366;2023-04-01T09:29:38;9.70;99.90
33067;DHT22;19428;49.024;8.366;2023-04-01T09:37:58;9.70;99.90
33067;DHT22;19428;49.024;8.366;2023-04-01T09:43:43;9.90;99.90
33067;DHT22;19428;49.024;8.366;2023-04-01T09:57:13;9.90;99.90
33067;DHT22;19428;49.024;8.366;2023-04-01T10:06:10;9.90;99.90
33067;DHT22;19428;49.024;8.366;2023-04-01T10:08:43;9.90;99.90
33067;DHT22;19428;49.024;8.366;2023-04-01T10:17:36;9.80;99.90
33067;DHT22;19428;49.024;8.366;2023-04-01T10:22:42;9.80;99.90
33067;DHT22;19428;49.024;8.366;2023-04-01T10:25:23;9.80;99.90
33067;DHT22;19428;49.024;8.366;2023-04-01T10:28:29;9.90;99.90
33067;DHT22;19428;49.024;8.366;2023-04-01T10:36:59;9.80;99.90
33067;DHT22;19428;49.024;8.366;2023-04-01T10:44:55;9.70;99.90
33067;DHT22;19428;49.024;8.366;2023-04-01T10:50:47;9.80;99.90
33067;DHT22;19428;49.024;8.366;2023-04-01T10:59:07;9.90;99.90
33067;DHT22;19428;49.024;8.366;2023-04-01T11:01:51;10.00;99.90
33067;DHT22;19428;49.024;8.366;2023-04-01T11:16:10;9.90;99.90
33067;DHT22;19428;49.024;8.366;2023-04-01T11:24:29;10.00;99.90
33067;DHT22;19428;49.024;8.366;2023-04-01T11:27:22;10.00;99.90
33067;DHT22;19428;49.024;8.366;2023-04-01T11:38:56;10.00;99.90
33067;DHT22;19428;49.024;8.366;2023-04-01T11:49:33;10.10;99.90
33067;DHT22;19428;49.024;8.366;2023-04-01T12:05:54;10.00;99.90
33067;DHT22;19428;49.024;8.366;2023-04-01T12:11:35;10.00;99.90
33067;DHT22;19428;49.024;8.366;2023-04-01T12:27:49;9.80;99.90
33067;DHT22;19428;49.024;8.366;2023-04-01T12:30:35;9.80;99.90
33067;DHT22;19428;49.024;8.366;2023-04-01T12:38:36;9.90;99.90
33067;DHT22;19428;49.024;8.366;2023-04-01T12:46:29;10.00;99.90
33067;DHT22;19428;49.024;8.366;2023-04-01T13:03:26;10.10;99.90
33067;DHT22;19428;49.024;8.366;2023-04-01T13:08:42;10.10;99.90
33067;DHT22;19428;49.024;8.366;2023-04-01T13:14:13;10.20;99.90
33067;DHT22;19428;49.024;8.366;2023-04-01T13:16:52;10.20;99.90
33067;DHT22;19428;49.024;8.366;2023-04-01T13:19:27;10.20;99.90
33067;DHT22;19428;49.024;8.366;2023-04-01T13:22:51;10.20;99.90
33067;DHT22;19428;49.024;8.366;2023-04-01T13:27:33;10.30;99.90
33067;DHT22;19428;49.024;8.366;2023-04-01T13:41:22;10.20;99.90
33067;DHT22;19428;49.024;8.366;2023-04-01T13:44:09;10.20;99.90
33067;DHT22;19428;49.024;8.366;2023-04-01T13:47:17;10.20;99.90
33067;DHT22;19428;49.024;8.366;2023-04-01T15:48:13;10.40;99.90
33067;DHT22;19428;49.024;8.366;2023-04-01T15:51:17;10.30;99.90
33067;DHT22;19428;49.024;8.366;2023-04-01T15:57:20;10.30;99.90
33067;DHT22;19428;49.024;8.366;2023-04-01T16:08:19;10.30;99.90
33067;DHT22;19428;49.024;8.366;2023-04-01T16:13:49;10.30;99.90
33067;DHT22;19428;49.024;8.366;2023-04-01T16:19:26;10.40;99.90
33067;DHT22;19428;49.024;8.366;2023-04-01T16:27:46;10.40;99.90
33067;DHT22;19428;49.024;8.366;2023-04-01T16:33:21;10.40;99.90
33067;DHT22;19428;49.024;8.366;2023-04-01T16:36:09;10.40;99.90
33067;DHT22;19428;49.024;8.366;2023-04-01T16:41:38;10.50;99.90
33067;DHT22;19428;49.024;8.366;2023-04-01T16:44:24;10.50;99.90
33067;DHT22;19428;49.024;8.366;2023-04-01T16:47:10;10.50;99.90
33067;DHT22;19428;49.024;8.366;2023-04-01T16:49:46;10.50;99.90
33067;DHT22;19428;49.024;8.366;2023-04-01T16:52:29;10.50;99.90
33067;DHT22;19428;49.024;8.366;2023-04-01T16:54:59;10.50;99.90
33067;DHT22;19428;49.024;8.366;2023-04-01T16:57:46;10.50;99.90
33067;DHT22;19428;49.024;8.366;2023-04-01T17:08:58;10.40;99.90
33067;DHT22;19428;49.024;8.366;2023-04-01T17:11:39;10.40;99.90
33067;DHT22;19428;49.024;8.366;2023-04-01T17:22:49;10.40;99.90
33067;DHT22;19428;49.024;8.366;2023-04-01T17:25:28;10.40;99.90
33067;DHT22;19428;49.024;8.366;2023-04-01T17:36:47;10.40;99.90
33067;DHT22;19428;49.024;8.366;2023-04-01T17:39:27;10.40;99.90
33067;DHT22;19428;49.024;8.366;2023-04-01T17:42:09;10.40;99.90
33067;DHT22;19428;49.024;8.366;2023-04-01T17:45:08;10.40;99.90
33067;DHT22;19428;49.024;8.366;2023-04-01T17:47:43;10.40;99.90
33067;DHT22;19428;49.024;8.366;2023-04-01T17:50:34;10.30;99.90
33067;DHT22;19428;49.024;8.366;2023-04-01T17:53:11;10.30;99.90
33067;DHT22;19428;49.024;8.366;2023-04-01T17:55:54;10.20;99.90
33067;DHT22;19428;49.024;8.366;2023-04-01T17:58:50;10.20;99.90
33067;DHT22;19428;49.024;8.366;2023-04-01T18:20:58;9.90;99.90
33067;DHT22;19428;49.024;8.366;2023-04-01T18:23:38;9.80;99.90
33067;DHT22;19428;49.024;8.366;2023-04-01T18:26:31;9.70;99.90
33067;DHT22;19428;49.024;8.366;2023-04-01T18:29:18;9.70;99.90
33067;DHT22;19428;49.024;8.366;2023-04-01T18:32:00;9.60;99.90
33067;DHT22;19428;49.024;8.366;2023-04-01T18:34:59;9.60;99.90
33067;DHT22;19428;49.024;8.366;2023-04-01T18:37:30;9.50;99.90
33067;DHT22;19428;49.024;8.366;2023-04-01T18:40:29;9.50;99.90
33067;DHT22;19428;49.024;8.366;2023-04-01T18:45:32;9.40;99.90
33067;DHT22;19428;49.024;8.366;2023-04-01T18:48:02;9.30;99.90
33067;DHT22;19428;49.024;8.366;2023-04-01T18:55:47;9.40;99.90
33067;DHT22;19428;49.024;8.366;2023-04-01T18:58:22;9.30;99.90
33067;DHT22;19428;49.024;8.366;2023-04-01T19:01:06;9.30;99.90
33067;DHT22;19428;49.024;8.366;2023-04-01T19:06:41;9.30;99.90
33067;DHT22;19428;49.024;8.366;2023-04-01T19:09:33;9.20;99.90
33067;DHT22;19428;49.024;8.366;2023-04-01T19:14:53;9.20;99.90
33067;DHT22;19428;49.024;8.366;2023-04-01T19:17:44;9.20;99.90
33067;DHT22;19428;49.024;8.366;2023-04-01T19:25:55;9.20;99.90
33067;DHT22;19428;49.024;8.366;2023-04-01T19:34:17;9.20;99.90
33067;DHT22;19428;49.024;8.366;2023-04-01T19:43:01;9.30;99.90
33067;DHT22;19428;49.024;8.366;2023-04-01T19:51:06;9.40;99.90
33067;DHT22;19428;49.024;8.366;2023-04-01T19:53:53;9.50;99.90
33067;DHT22;19428;49.024;8.366;2023-04-01T19:56:22;9.60;99.90
33067;DHT22;19428;49.024;8.366;2023-04-01T20:01:53;9.60;99.90
33067;DHT22;19428;49.024;8.366;2023-04-01T20:07:04;9.70;99.90
33067;DHT22;19428;49.024;8.366;2023-04-01T20:15:22;9.70;99.90
33067;DHT22;19428;49.024;8.366;2023-04-01T20:17:52;9.70;99.90
33067;DHT22;19428;49.024;8.366;2023-04-01T20:20:27;9.80;99.90
33067;DHT22;19428;49.024;8.366;2023-04-01T20:25:57;9.90;99.90
33067;DHT22;19428;49.024;8.366;2023-04-01T20:31:35;9.90;99.90
33067;DHT22;19428;49.024;8.366;2023-04-01T20:34:12;9.90;99.90
33067;DHT22;19428;49.024;8.366;2023-04-01T20:39:31;9.90;99.90
33067;DHT22;19428;49.024;8.366;2023-04-01T20:44:43;9.90;99.90
33067;DHT22;19428;49.024;8.366;2023-04-01T20:57:26;9.90;99.90
33067;DHT22;19428;49.024;8.366;2023-04-01T21:02:49;9.90;99.90
33067;DHT22;19428;49.024;8.366;2023-04-01T21:11:43;10.00;99.90
33067;DHT22;19428;49.024;8.366;2023-04-01T21:14:32;9.90;99.90
33067;DHT22;19428;49.024;8.366;2023-04-01T21:20:03;9.90;99.90
33067;DHT22;19428;49.024;8.366;2023-04-01T21:29:18;9.80;99.90
33067;DHT22;19428;49.024;8.366;2023-04-01T21:37:19;9.80;99.90
33067;DHT22;19428;49.024;8.366;2023-04-01T21:43:04;9.70;99.90
33067;DHT22;19428;49.024;8.366;2023-04-01T22:05:43;9.70;99.90
33067;DHT22;19428;49.024;8.366;2023-04-01T22:13:48;9.60;99.90
33067;DHT22;19428;49.024;8.366;2023-04-01T22:16:46;9.60;99.90
33067;DHT22;19428;49.024;8.366;2023-04-01T22:25:01;9.60;99.90
33067;DHT22;19428;49.024;8.366;2023-04-01T22:27:55;9.60;99.90
33067;DHT22;19428;49.024;8.366;2023-04-01T22:30:28;9.60;99.90
33067;DHT22;19428;49.024;8.366;2023-04-01T22:38:49;9.60;99.90
33067;DHT22;19428;49.024;8.366;2023-04-01T22:41:34;9.60;99.90
33067;DHT22;19428;49.024;8.366;2023-04-01T22:44:02;9.60;99.90
33067;DHT22;19428;49.024;8.366;2023-04-01T22:47:04;9.60;99.90
33067;DHT22;19428;49.024;8.366;2023-04-01T22:49:42;9.60;99.90
33067;DHT22;19428;49.024;8.366;2023-04-01T22:52:33;9.50;99.90
33067;DHT22;19428;49.024;8.366;2023-04-01T22:55:08;9.50;99.90
33067;DHT22;19428;49.024;8.366;2023-04-01T22:57:50;9.50;99.90
33067;DHT22;19428;49.024;8.366;2023-04-01T23:00:37;9.50;99.90
33067;DHT22;19428;49.024;8.366;2023-04-01T23:05:58;9.50;99.90
33067;DHT22;19428;49.024;8.366;2023-04-01T23:08:50;9.50;99.90
33067;DHT22;19428;49.024;8.366;2023-04-01T23:12:00;9.50;99.90
33067;DHT22;19428;49.024;8.366;2023-04-01T23:17:10;9.50;99.90
33067;DHT22;19428;49.024;8.366;2023-04-01T23:19:57;9.50;99.90
33067;DHT22;19428;49.024;8.366;2023-04-01T23:22:46;9.50;99.90
33067;DHT22;19428;49.024;8.366;2023-04-01T23:35:57;9.50;99.90
33067;DHT22;19428;49.024;8.366;2023-04-01T23:38:32;9.50;99.90
33067;DHT22;19428;49.024;8.366;2023-04-01T23:41:00;9.50;99.90
33067;DHT22;19428;49.024;8.366;2023-04-01T23:43:28;9.50;99.90
33067;DHT22;19428;49.024;8.366;2023-04-01T23:45:57;9.50;99.90
33067;DHT22;19428;49.024;8.366;2023-04-01T23:48:28;9.40;99.90
33067;DHT22;19428;49.024;8.366;2023-04-01T23:50:55;9.40;99.90
33067;DHT22;19428;49.024;8.366;2023-04-01T23:53:25;9.30;99.90
33067;DHT22;19428;49.024;8.366;2023-04-01T23:55:51;9.30;99.90
33067;DHT22;19428;49.024;8.366;2023-04-01T23:58:22;9.20;99.90
